NZCH/CHC METAR and TAF weather

Enter ICAO airport designator
Station Type Date Time Source
NZCH METAR 2020/09/30 14:30 UTC NOAA

NZCH 301430Z AUTO 29004KT 9999 NCD 02/M01 Q1021 NOSIG


Station Type Date Time Source
NZCH Decoded METAR 2020/09/30 14:30 UTC NOAA

Christchurch, New Zealand (NZCH) 43-29S 172-33E 30M
Sep 30, 2020 - 10:30 AM EDT / 2020.09.30 1430 UTC
Wind: from the WNW (290 degrees) at 5 MPH (4 KT):0
Visibility: greater than 7 mile(s):0
Temperature: 35 F (2 C)
Windchill: 30 F (-1 C):1
Dew Point: 30 F (-1 C)
Relative Humidity: 80%
Pressure (altimeter): 30.15 in. Hg (1021 hPa)
ob: NZCH 301430Z AUTO 29004KT 9999 NCD 02/M01 Q1021 NOSIG
cycle: 14

Station Type Date Time Source
NZCH TAF 2020/09/30 12:13 UTC NOAA

TAF NZCH 301110Z 3012/0112 33005KT CAVOK
BECMG 3020/3022 07010KT

Example: see airport list